Skopje, Macedonia
Current Conditions -  °F | °C
As of 4:30 PM on Tuesday 27 Jan 2015 (Local Time) from LWSK Reporting Station
Broken Clouds Broken Clouds  
Wind Chill: 41°   Ceiling: 3300
Heat Index: 41°   Visibility: 6mi
Dew Point: 32°   Wind: 0mph
Humidity: 70%   Direction: NA
Pressure: 29.88"   Gusts: NA
Location:  42°N, 21.47°E
Report Text: LWSK 271430Z 00000KT 9999 SCT020 BKN033 05/00 Q1012 NOSIG
Loading
Personal Weather Stations






























Interactive Weather Map New forecast layout! Learn more

10-Day Weather Forecast

Advertisements
Track Severe Weather on mobile